sensor_id;sensor_type;location;lat;lon;timestamp;pressure;altitude;pressure_sealevel;temperature;humidity
76216;BME280;65010;50.190;18.930;2023-11-21T00:00:49;97498.56;;;8.74;76.43
76216;BME280;65010;50.190;18.930;2023-11-21T00:03:56;97507.88;;;8.76;76.52
76216;BME280;65010;50.190;18.930;2023-11-21T00:07:04;97493.34;;;8.74;76.56
76216;BME280;65010;50.190;18.930;2023-11-21T00:10:12;97505.97;;;8.85;76.57
76216;BME280;65010;50.190;18.930;2023-11-21T00:13:19;97503.59;;;8.90;76.75
76216;BME280;65010;50.190;18.930;2023-11-21T00:16:28;97507.75;;;8.99;76.78
76216;BME280;65010;50.190;18.930;2023-11-21T00:19:34;97516.25;;;9.01;76.37
76216;BME280;65010;50.190;18.930;2023-11-21T00:22:42;97502.81;;;8.89;76.31
76216;BME280;65010;50.190;18.930;2023-11-21T00:25:48;97513.28;;;8.89;76.08
76216;BME280;65010;50.190;18.930;2023-11-21T00:28:54;97522.06;;;8.82;75.93
76216;BME280;65010;50.190;18.930;2023-11-21T00:32:04;97520.97;;;8.76;75.94
76216;BME280;65010;50.190;18.930;2023-11-21T00:35:13;97514.22;;;8.67;75.97
76216;BME280;65010;50.190;18.930;2023-11-21T00:38:23;97517.09;;;8.57;75.62
76216;BME280;65010;50.190;18.930;2023-11-21T00:41:30;97518.47;;;8.53;75.95
76216;BME280;65010;50.190;18.930;2023-11-21T00:44:37;97525.31;;;8.54;76.37
76216;BME280;65010;50.190;18.930;2023-11-21T00:47:47;97522.53;;;8.56;75.94
76216;BME280;65010;50.190;18.930;2023-11-21T00:50:53;97523.06;;;8.51;76.08
76216;BME280;65010;50.190;18.930;2023-11-21T00:54:00;97520.00;;;8.47;76.01
76216;BME280;65010;50.190;18.930;2023-11-21T00:57:06;97521.81;;;8.47;76.03
76216;BME280;65010;50.190;18.930;2023-11-21T01:00:15;97522.16;;;8.44;75.24
76216;BME280;65010;50.190;18.930;2023-11-21T01:03:25;97505.34;;;8.38;75.35
76216;BME280;65010;50.190;18.930;2023-11-21T01:06:31;97511.06;;;8.42;75.27
76216;BME280;65010;50.190;18.930;2023-11-21T01:09:37;97511.69;;;8.44;75.20
76216;BME280;65010;50.190;18.930;2023-11-21T01:12:44;97512.88;;;8.41;74.93
76216;BME280;65010;50.190;18.930;2023-11-21T01:15:51;97510.41;;;8.40;74.76
76216;BME280;65010;50.190;18.930;2023-11-21T01:19:00;97500.31;;;8.37;74.32
76216;BME280;65010;50.190;18.930;2023-11-21T01:22:07;97505.00;;;8.41;74.52
76216;BME280;65010;50.190;18.930;2023-11-21T01:25:15;97503.41;;;8.40;74.38
76216;BME280;65010;50.190;18.930;2023-11-21T01:28:21;97511.06;;;8.42;74.07
76216;BME280;65010;50.190;18.930;2023-11-21T01:31:28;97513.22;;;8.38;74.04
76216;BME280;65010;50.190;18.930;2023-11-21T01:34:36;97519.81;;;8.34;73.93
76216;BME280;65010;50.190;18.930;2023-11-21T01:37:43;97531.44;;;8.32;74.07
76216;BME280;65010;50.190;18.930;2023-11-21T01:40:50;97535.25;;;8.29;73.88
76216;BME280;65010;50.190;18.930;2023-11-21T01:43:57;97539.84;;;8.27;74.26
76216;BME280;65010;50.190;18.930;2023-11-21T01:47:04;97536.31;;;8.20;74.09
76216;BME280;65010;50.190;18.930;2023-11-21T01:50:16;97540.25;;;8.16;73.91
76216;BME280;65010;50.190;18.930;2023-11-21T01:53:25;97519.13;;;8.02;74.11
76216;BME280;65010;50.190;18.930;2023-11-21T01:56:33;97531.75;;;8.14;73.97
76216;BME280;65010;50.190;18.930;2023-11-21T01:59:41;97536.72;;;8.08;74.33
76216;BME280;65010;50.190;18.930;2023-11-21T02:02:51;97540.63;;;8.13;74.09
76216;BME280;65010;50.190;18.930;2023-11-21T02:05:59;97528.50;;;8.12;73.98
76216;BME280;65010;50.190;18.930;2023-11-21T02:09:06;97537.06;;;8.05;73.55
76216;BME280;65010;50.190;18.930;2023-11-21T02:12:13;97535.47;;;8.04;73.83
76216;BME280;65010;50.190;18.930;2023-11-21T02:15:19;97526.97;;;8.02;73.75
76216;BME280;65010;50.190;18.930;2023-11-21T02:18:26;97541.97;;;8.08;73.87
76216;BME280;65010;50.190;18.930;2023-11-21T02:21:36;97535.47;;;8.04;73.70
76216;BME280;65010;50.190;18.930;2023-11-21T02:24:46;97521.28;;;7.99;74.05
76216;BME280;65010;50.190;18.930;2023-11-21T02:27:55;97533.28;;;8.08;74.16
76216;BME280;65010;50.190;18.930;2023-11-21T02:31:06;97524.16;;;8.04;74.21
76216;BME280;65010;50.190;18.930;2023-11-21T02:34:12;97531.19;;;8.03;73.75
76216;BME280;65010;50.190;18.930;2023-11-21T02:37:19;97536.25;;;8.05;74.59
76216;BME280;65010;50.190;18.930;2023-11-21T02:40:28;97535.47;;;8.04;74.01
76216;BME280;65010;50.190;18.930;2023-11-21T02:43:35;97528.41;;;8.05;74.11
76216;BME280;65010;50.190;18.930;2023-11-21T02:46:41;97529.84;;;8.07;73.97
76216;BME280;65010;50.190;18.930;2023-11-21T02:49:48;97532.28;;;8.09;74.09
76216;BME280;65010;50.190;18.930;2023-11-21T02:52:55;97538.72;;;8.06;74.04
76216;BME280;65010;50.190;18.930;2023-11-21T02:56:07;97543.75;;;8.08;74.10
76216;BME280;65010;50.190;18.930;2023-11-21T02:59:13;97560.53;;;8.14;74.36
76216;BME280;65010;50.190;18.930;2023-11-21T03:02:21;97551.25;;;8.11;74.22
76216;BME280;65010;50.190;18.930;2023-11-21T03:05:27;97558.75;;;8.14;73.88
76216;BME280;65010;50.190;18.930;2023-11-21T03:08:34;97561.56;;;8.13;73.98
76216;BME280;65010;50.190;18.930;2023-11-21T03:11:43;97561.91;;;8.09;73.58
76216;BME280;65010;50.190;18.930;2023-11-21T03:14:49;97557.66;;;8.08;73.77
76216;BME280;65010;50.190;18.930;2023-11-21T03:17:56;97574.34;;;8.07;73.85
76216;BME280;65010;50.190;18.930;2023-11-21T03:21:03;97565.69;;;8.07;74.13
76216;BME280;65010;50.190;18.930;2023-11-21T03:24:11;97564.88;;;8.06;74.11
76216;BME280;65010;50.190;18.930;2023-11-21T03:27:23;97559.91;;;8.12;74.64
76216;BME280;65010;50.190;18.930;2023-11-21T03:30:29;97562.53;;;8.12;74.38
76216;BME280;65010;50.190;18.930;2023-11-21T03:33:36;97568.56;;;8.20;74.81
76216;BME280;65010;50.190;18.930;2023-11-21T03:36:43;97562.22;;;8.29;75.29
76216;BME280;65010;50.190;18.930;2023-11-21T03:39:50;97572.44;;;8.39;75.26
76216;BME280;65010;50.190;18.930;2023-11-21T03:42:59;97567.84;;;8.41;74.80
76216;BME280;65010;50.190;18.930;2023-11-21T03:46:06;97570.31;;;8.43;74.76
76216;BME280;65010;50.190;18.930;2023-11-21T03:49:12;97574.91;;;8.41;74.36
76216;BME280;65010;50.190;18.930;2023-11-21T03:52:19;97568.03;;;8.40;74.23
76216;BME280;65010;50.190;18.930;2023-11-21T03:55:25;97567.22;;;8.39;74.85
76216;BME280;65010;50.190;18.930;2023-11-21T03:58:34;97569.19;;;8.37;74.76
76216;BME280;65010;50.190;18.930;2023-11-21T04:01:40;97557.47;;;8.33;74.91
76216;BME280;65010;50.190;18.930;2023-11-21T04:04:46;97569.13;;;8.45;75.60
76216;BME280;65010;50.190;18.930;2023-11-21T04:07:52;97575.00;;;8.47;75.29
76216;BME280;65010;50.190;18.930;2023-11-21T04:10:59;97571.03;;;8.52;75.64
76216;BME280;65010;50.190;18.930;2023-11-21T04:14:07;97568.22;;;8.53;75.51
76216;BME280;65010;50.190;18.930;2023-11-21T04:17:18;97566.50;;;8.60;75.57
76216;BME280;65010;50.190;18.930;2023-11-21T04:20:24;97569.22;;;8.67;75.92
76216;BME280;65010;50.190;18.930;2023-11-21T04:23:31;97567.97;;;8.63;75.42
76216;BME280;65010;50.190;18.930;2023-11-21T04:26:37;97573.84;;;8.65;75.62
76216;BME280;65010;50.190;18.930;2023-11-21T04:29:46;97575.09;;;8.69;75.57
76216;BME280;65010;50.190;18.930;2023-11-21T04:32:52;97578.53;;;8.69;75.87
76216;BME280;65010;50.190;18.930;2023-11-21T04:36:01;97587.19;;;8.70;75.32
76216;BME280;65010;50.190;18.930;2023-11-21T04:39:07;97579.41;;;8.62;75.34
76216;BME280;65010;50.190;18.930;2023-11-21T04:42:14;97586.94;;;8.65;75.35
76216;BME280;65010;50.190;18.930;2023-11-21T04:45:23;97591.34;;;8.64;75.58
76216;BME280;65010;50.190;18.930;2023-11-21T04:48:30;97591.78;;;8.68;75.90
76216;BME280;65010;50.190;18.930;2023-11-21T04:51:36;97592.44;;;8.70;76.24
76216;BME280;65010;50.190;18.930;2023-11-21T04:54:42;97602.72;;;8.72;75.81
76216;BME280;65010;50.190;18.930;2023-11-21T04:57:48;97600.38;;;8.62;75.41
76216;BME280;65010;50.190;18.930;2023-11-21T05:00:57;97599.47;;;8.55;76.08
76216;BME280;65010;50.190;18.930;2023-11-21T05:04:06;97595.41;;;8.52;75.84
76216;BME280;65010;50.190;18.930;2023-11-21T05:07:15;97603.34;;;8.44;75.49
76216;BME280;65010;50.190;18.930;2023-11-21T05:10:21;97599.69;;;8.30;75.39
76216;BME280;65010;50.190;18.930;2023-11-21T05:13:28;97605.34;;;8.19;75.58
76216;BME280;65010;50.190;18.930;2023-11-21T05:16:37;97604.84;;;8.00;75.54
76216;BME280;65010;50.190;18.930;2023-11-21T05:19:44;97610.88;;;8.01;75.94
76216;BME280;65010;50.190;18.930;2023-11-21T05:22:51;97614.03;;;7.96;75.96
76216;BME280;65010;50.190;18.930;2023-11-21T05:25:58;97616.50;;;7.89;76.26
76216;BME280;65010;50.190;18.930;2023-11-21T05:29:04;97619.81;;;7.83;76.13
76216;BME280;65010;50.190;18.930;2023-11-21T05:32:13;97622.81;;;7.80;76.66
76216;BME280;65010;50.190;18.930;2023-11-21T05:35:20;97625.41;;;7.80;76.62
76216;BME280;65010;50.190;18.930;2023-11-21T05:38:27;97624.31;;;7.75;76.14
76216;BME280;65010;50.190;18.930;2023-11-21T05:41:33;97621.84;;;7.73;76.25
76216;BME280;65010;50.190;18.930;2023-11-21T05:44:42;97627.09;;;7.73;76.46
76216;BME280;65010;50.190;18.930;2023-11-21T05:47:50;97625.41;;;7.80;76.76
76216;BME280;65010;50.190;18.930;2023-11-21T05:50:57;97625.38;;;7.88;76.26
76216;BME280;65010;50.190;18.930;2023-11-21T05:54:04;97629.44;;;7.91;76.51
76216;BME280;65010;50.190;18.930;2023-11-21T05:57:11;97630.88;;;7.94;76.16
76216;BME280;65010;50.190;18.930;2023-11-21T06:00:17;97630.53;;;7.97;75.94
76216;BME280;65010;50.190;18.930;2023-11-21T06:03:27;97640.63;;;8.00;75.96
76216;BME280;65010;50.190;18.930;2023-11-21T06:06:33;97646.97;;;8.05;75.97
76216;BME280;65010;50.190;18.930;2023-11-21T06:09:40;97647.63;;;8.07;75.81
76216;BME280;65010;50.190;18.930;2023-11-21T06:12:47;97657.91;;;8.09;75.94
76216;BME280;65010;50.190;18.930;2023-11-21T06:15:54;97658.72;;;8.09;75.62
76216;BME280;65010;50.190;18.930;2023-11-21T06:19:02;97662.78;;;8.12;75.69
76216;BME280;65010;50.190;18.930;2023-11-21T06:22:09;97655.78;;;8.13;75.77
76216;BME280;65010;50.190;18.930;2023-11-21T06:25:15;97661.47;;;8.16;75.71
76216;BME280;65010;50.190;18.930;2023-11-21T06:28:22;97668.97;;;8.19;75.67
76216;BME280;65010;50.190;18.930;2023-11-21T06:31:29;97666.72;;;8.16;75.36
76216;BME280;65010;50.190;18.930;2023-11-21T06:34:39;97656.09;;;8.09;75.05
76216;BME280;65010;50.190;18.930;2023-11-21T06:37:45;97666.75;;;8.08;74.55
76216;BME280;65010;50.190;18.930;2023-11-21T06:40:55;97665.31;;;8.05;74.93
76216;BME280;65010;50.190;18.930;2023-11-21T06:44:04;97673.16;;;8.05;74.60
76216;BME280;65010;50.190;18.930;2023-11-21T06:47:12;97679.19;;;8.06;74.71
76216;BME280;65010;50.190;18.930;2023-11-21T06:50:21;97680.53;;;8.02;74.83
76216;BME280;65010;50.190;18.930;2023-11-21T06:53:30;97681.38;;;8.02;74.99
76216;BME280;65010;50.190;18.930;2023-11-21T06:56:39;97685.44;;;8.05;74.72
76216;BME280;65010;50.190;18.930;2023-11-21T06:59:46;97678.38;;;8.05;75.05
76216;BME280;65010;50.190;18.930;2023-11-21T07:02:53;97685.25;;;8.06;74.58
76216;BME280;65010;50.190;18.930;2023-11-21T07:06:02;97680.88;;;7.99;74.78
76216;BME280;65010;50.190;18.930;2023-11-21T07:09:09;97684.47;;;7.98;74.47
76216;BME280;65010;50.190;18.930;2023-11-21T07:12:17;97684.47;;;7.98;74.54
76216;BME280;65010;50.190;18.930;2023-11-21T07:15:28;97692.34;;;7.98;74.68
76216;BME280;65010;50.190;18.930;2023-11-21T07:18:35;97694.50;;;7.94;74.68
76216;BME280;65010;50.190;18.930;2023-11-21T07:21:45;97692.16;;;7.99;74.65
76216;BME280;65010;50.190;18.930;2023-11-21T07:24:54;97693.44;;;8.03;74.75
76216;BME280;65010;50.190;18.930;2023-11-21T07:28:01;97692.91;;;8.08;74.64
76216;BME280;65010;50.190;18.930;2023-11-21T07:31:09;97690.59;;;8.13;74.52
76216;BME280;65010;50.190;18.930;2023-11-21T07:34:15;97697.75;;;8.19;74.85
76216;BME280;65010;50.190;18.930;2023-11-21T07:37:26;97687.97;;;8.21;74.33
76216;BME280;65010;50.190;18.930;2023-11-21T07:40:33;97694.56;;;8.32;74.43
76216;BME280;65010;50.190;18.930;2023-11-21T07:43:40;97699.31;;;8.37;73.49
76216;BME280;65010;50.190;18.930;2023-11-21T07:46:47;97701.63;;;8.32;73.50
76216;BME280;65010;50.190;18.930;2023-11-21T07:49:54;97708.13;;;8.36;73.90
76216;BME280;65010;50.190;18.930;2023-11-21T07:53:03;97702.09;;;8.35;73.32
76216;BME280;65010;50.190;18.930;2023-11-21T07:56:10;97702.56;;;8.39;73.70
76216;BME280;65010;50.190;18.930;2023-11-21T07:59:17;97710.25;;;8.40;73.48
76216;BME280;65010;50.190;18.930;2023-11-21T08:02:23;97707.81;;;8.39;73.61
76216;BME280;65010;50.190;18.930;2023-11-21T08:05:31;97706.63;;;8.41;73.76
76216;BME280;65010;50.190;18.930;2023-11-21T08:08:41;97693.19;;;8.44;73.71
76216;BME280;65010;50.190;18.930;2023-11-21T08:11:49;97705.31;;;8.60;73.73
76216;BME280;65010;50.190;18.930;2023-11-21T08:14:57;97711.31;;;8.69;72.84
76216;BME280;65010;50.190;18.930;2023-11-21T08:18:05;97722.59;;;8.69;72.76
76216;BME280;65010;50.190;18.930;2023-11-21T08:21:13;97716.09;;;8.65;72.39
76216;BME280;65010;50.190;18.930;2023-11-21T08:24:22;97726.09;;;8.62;72.68
76216;BME280;65010;50.190;18.930;2023-11-21T08:27:29;97731.81;;;8.65;72.90
76216;BME280;65010;50.190;18.930;2023-11-21T08:30:35;97731.09;;;8.72;73.41
76216;BME280;65010;50.190;18.930;2023-11-21T08:33:41;97729.75;;;8.76;72.66
76216;BME280;65010;50.190;18.930;2023-11-21T08:36:48;97728.25;;;8.81;72.34
76216;BME280;65010;50.190;18.930;2023-11-21T08:39:57;97731.97;;;8.87;72.45
76216;BME280;65010;50.190;18.930;2023-11-21T08:43:05;97723.72;;;8.90;72.30
76216;BME280;65010;50.190;18.930;2023-11-21T08:46:11;97735.66;;;8.93;71.51
76216;BME280;65010;50.190;18.930;2023-11-21T08:49:18;97741.09;;;8.91;71.60
76216;BME280;65010;50.190;18.930;2023-11-21T08:52:25;97749.22;;;8.96;71.39
76216;BME280;65010;50.190;18.930;2023-11-21T08:55:34;97744.81;;;8.97;71.25
76216;BME280;65010;50.190;18.930;2023-11-21T08:58:42;97752.13;;;9.01;71.35
76216;BME280;65010;50.190;18.930;2023-11-21T09:01:49;97749.53;;;9.01;70.63
76216;BME280;65010;50.190;18.930;2023-11-21T09:04:55;97752.38;;;8.92;70.96
76216;BME280;65010;50.190;18.930;2023-11-21T09:08:02;97750.94;;;8.89;71.18
76216;BME280;65010;50.190;18.930;2023-11-21T09:11:12;97743.41;;;8.86;70.91
76216;BME280;65010;50.190;18.930;2023-11-21T09:14:18;97749.13;;;8.89;71.35
76216;BME280;65010;50.190;18.930;2023-11-21T09:17:24;97749.22;;;8.96;71.68
76216;BME280;65010;50.190;18.930;2023-11-21T09:20:31;97756.56;;;9.01;71.11
76216;BME280;65010;50.190;18.930;2023-11-21T09:23:37;97738.22;;;9.01;71.21
76216;BME280;65010;50.190;18.930;2023-11-21T09:26:47;97744.03;;;9.11;71.35
76216;BME280;65010;50.190;18.930;2023-11-21T09:29:53;97741.16;;;9.21;71.54
76216;BME280;65010;50.190;18.930;2023-11-21T09:33:01;97741.78;;;9.23;70.15
76216;BME280;65010;50.190;18.930;2023-11-21T09:36:11;97742.84;;;9.28;70.53
76216;BME280;65010;50.190;18.930;2023-11-21T09:39:19;97741.50;;;9.33;70.15
76216;BME280;65010;50.190;18.930;2023-11-21T09:42:34;97747.56;;;9.48;70.70
76216;BME280;65010;50.190;18.930;2023-11-21T09:45:47;97743.94;;;9.64;70.08
76216;BME280;65010;50.190;18.930;2023-11-21T09:49:00;97744.22;;;9.84;69.77
76216;BME280;65010;50.190;18.930;2023-11-21T09:52:22;97739.09;;;9.97;68.10
76216;BME280;65010;50.190;18.930;2023-11-21T09:55:34;97735.66;;;10.12;68.11
76216;BME280;65010;50.190;18.930;2023-11-21T09:58:46;97738.91;;;10.14;66.63
76216;BME280;65010;50.190;18.930;2023-11-21T10:01:57;97734.50;;;10.21;65.95
76216;BME280;65010;50.190;18.930;2023-11-21T10:05:07;97737.16;;;10.42;67.99
76216;BME280;65010;50.190;18.930;2023-11-21T10:08:15;97737.78;;;10.66;67.73
76216;BME280;65010;50.190;18.930;2023-11-21T10:11:25;97734.44;;;10.79;65.66
76216;BME280;65010;50.190;18.930;2023-11-21T10:14:37;97734.91;;;10.61;64.48
76216;BME280;65010;50.190;18.930;2023-11-21T10:17:49;97735.91;;;10.60;65.21
76216;BME280;65010;50.190;18.930;2023-11-21T10:20:56;97741.16;;;10.60;64.98
76216;BME280;65010;50.190;18.930;2023-11-21T10:24:04;97739.53;;;10.59;63.72
76216;BME280;65010;50.190;18.930;2023-11-21T10:27:10;97737.16;;;10.42;63.77
76216;BME280;65010;50.190;18.930;2023-11-21T10:30:20;97740.38;;;10.23;64.17
76216;BME280;65010;50.190;18.930;2023-11-21T10:33:29;97743.53;;;10.12;65.32
76216;BME280;65010;50.190;18.930;2023-11-21T10:36:36;97727.53;;;9.92;65.20
76216;BME280;65010;50.190;18.930;2023-11-21T10:39:42;97733.16;;;9.88;65.32
76216;BME280;65010;50.190;18.930;2023-11-21T10:42:49;97738.59;;;9.72;65.85
76216;BME280;65010;50.190;18.930;2023-11-21T10:46:00;97728.38;;;9.62;66.38
76216;BME280;65010;50.190;18.930;2023-11-21T10:49:06;97735.16;;;9.57;66.11
76216;BME280;65010;50.190;18.930;2023-11-21T10:52:13;97743.56;;;9.52;66.79
76216;BME280;65010;50.190;18.930;2023-11-21T10:55:21;97750.09;;;9.56;66.86
76216;BME280;65010;50.190;18.930;2023-11-21T10:58:27;97738.97;;;9.54;67.59
76216;BME280;65010;50.190;18.930;2023-11-21T11:01:38;97744.09;;;9.62;67.92
76216;BME280;65010;50.190;18.930;2023-11-21T11:04:47;97747.00;;;9.67;66.73
76216;BME280;65010;50.190;18.930;2023-11-21T11:07:59;97742.13;;;9.64;66.34
76216;BME280;65010;50.190;18.930;2023-11-21T11:11:14;97741.31;;;9.64;67.09
76216;BME280;65010;50.190;18.930;2023-11-21T11:14:22;97740.75;;;9.68;67.04
76216;BME280;65010;50.190;18.930;2023-11-21T11:17:33;97746.28;;;9.74;67.81
76216;BME280;65010;50.190;18.930;2023-11-21T11:20:45;97734.63;;;9.61;65.12
76216;BME280;65010;50.190;18.930;2023-11-21T11:24:13;97735.88;;;9.65;66.11
76216;BME280;65010;50.190;18.930;2023-11-21T11:27:40;97745.66;;;9.72;67.08
76216;BME280;65010;50.190;18.930;2023-11-21T11:31:05;97742.84;;;9.73;65.12
76216;BME280;65010;50.190;18.930;2023-11-21T11:34:29;97741.03;;;9.74;64.73
76216;BME280;65010;50.190;18.930;2023-11-21T11:37:37;97740.75;;;9.68;64.58
76216;BME280;65010;50.190;18.930;2023-11-21T11:40:46;97752.06;;;9.69;64.74
76216;BME280;65010;50.190;18.930;2023-11-21T11:43:53;97752.59;;;9.64;63.66
76216;BME280;65010;50.190;18.930;2023-11-21T11:47:00;97757.06;;;9.64;65.08
76216;BME280;65010;50.190;18.930;2023-11-21T11:50:12;97755.41;;;9.63;64.73
76216;BME280;65010;50.190;18.930;2023-11-21T11:53:23;97745.03;;;9.69;65.16
76216;BME280;65010;50.190;18.930;2023-11-21T11:56:32;97747.00;;;9.67;65.01
76216;BME280;65010;50.190;18.930;2023-11-21T12:00:10;97754.03;;;9.67;65.46
76216;BME280;65010;50.190;18.930;2023-11-21T12:03:24;97755.22;;;9.64;64.38
76216;BME280;65010;50.190;18.930;2023-11-21T12:06:35;97752.88;;;9.69;65.29
76216;BME280;65010;50.190;18.930;2023-11-21T12:09:42;97751.06;;;9.70;65.40
76216;BME280;65010;50.190;18.930;2023-11-21T12:12:54;97756.16;;;9.72;65.01
76216;BME280;65010;50.190;18.930;2023-11-21T12:16:02;97751.53;;;9.59;64.45
76216;BME280;65010;50.190;18.930;2023-11-21T12:19:09;97757.97;;;9.56;64.23
76216;BME280;65010;50.190;18.930;2023-11-21T12:22:19;97743.84;;;9.42;64.14
76216;BME280;65010;50.190;18.930;2023-11-21T12:25:28;97750.25;;;9.55;65.37
76216;BME280;65010;50.190;18.930;2023-11-21T12:28:35;97755.06;;;9.66;66.15
76216;BME280;65010;50.190;18.930;2023-11-21T12:31:42;97746.38;;;9.65;65.17
76216;BME280;65010;50.190;18.930;2023-11-21T12:34:50;97748.16;;;9.65;65.15
76216;BME280;65010;50.190;18.930;2023-11-21T12:38:01;97749.34;;;9.62;64.52
76216;BME280;65010;50.190;18.930;2023-11-21T12:41:08;97762.75;;;9.53;64.44
76216;BME280;65010;50.190;18.930;2023-11-21T12:44:16;97735.91;;;9.36;63.76
76216;BME280;65010;50.190;18.930;2023-11-21T12:47:22;97756.78;;;9.44;64.45
76216;BME280;65010;50.190;18.930;2023-11-21T12:50:30;97760.97;;;9.53;65.81
76216;BME280;65010;50.190;18.930;2023-11-21T12:53:42;97757.41;;;9.61;65.02
76216;BME280;65010;50.190;18.930;2023-11-21T12:56:50;97758.50;;;9.66;65.96
76216;BME280;65010;50.190;18.930;2023-11-21T12:59:58;97762.28;;;9.64;65.07
76216;BME280;65010;50.190;18.930;2023-11-21T13:03:15;97768.53;;;9.48;64.95
76216;BME280;65010;50.190;18.930;2023-11-21T13:06:26;97768.19;;;9.51;65.27
76216;BME280;65010;50.190;18.930;2023-11-21T13:09:39;97767.75;;;9.47;64.82
76216;BME280;65010;50.190;18.930;2023-11-21T13:12:46;97773.63;;;9.49;65.08
76216;BME280;65010;50.190;18.930;2023-11-21T13:15:56;97780.84;;;9.47;65.62
76216;BME280;65010;50.190;18.930;2023-11-21T13:19:04;97780.38;;;9.44;65.00
76216;BME280;65010;50.190;18.930;2023-11-21T13:22:12;97766.72;;;9.34;65.64
76216;BME280;65010;50.190;18.930;2023-11-21T13:25:24;97786.34;;;9.38;65.73
76216;BME280;65010;50.190;18.930;2023-11-21T13:28:32;97787.72;;;9.34;65.81
76216;BME280;65010;50.190;18.930;2023-11-21T13:31:40;97785.00;;;9.27;66.30
76216;BME280;65010;50.190;18.930;2023-11-21T13:34:47;97779.03;;;9.33;66.62
76216;BME280;65010;50.190;18.930;2023-11-21T13:38:02;97778.66;;;9.36;67.08
76216;BME280;65010;50.190;18.930;2023-11-21T13:41:15;97785.56;;;9.37;67.18
76216;BME280;65010;50.190;18.930;2023-11-21T13:44:21;97780.66;;;9.34;66.77
76216;BME280;65010;50.190;18.930;2023-11-21T13:47:38;97789.41;;;9.26;66.95
76216;BME280;65010;50.190;18.930;2023-11-21T13:50:44;97791.69;;;9.29;67.88
76216;BME280;65010;50.190;18.930;2023-11-21T13:53:58;97788.78;;;9.24;67.95
76216;BME280;65010;50.190;18.930;2023-11-21T13:57:07;97792.75;;;9.20;67.33
76216;BME280;65010;50.190;18.930;2023-11-21T14:00:14;97785.66;;;9.06;67.22
76216;BME280;65010;50.190;18.930;2023-11-21T14:03:43;97793.38;;;9.07;67.34
76216;BME280;65010;50.190;18.930;2023-11-21T14:06:55;97790.75;;;9.07;67.46
76216;BME280;65010;50.190;18.930;2023-11-21T14:10:05;97790.66;;;9.01;67.23
76216;BME280;65010;50.190;18.930;2023-11-21T14:13:20;97792.63;;;8.99;67.53
76216;BME280;65010;50.190;18.930;2023-11-21T14:16:27;97796.31;;;8.89;67.69
76216;BME280;65010;50.190;18.930;2023-11-21T14:19:33;97792.75;;;8.82;67.84
76216;BME280;65010;50.190;18.930;2023-11-21T14:22:43;97801.84;;;8.72;68.09
76216;BME280;65010;50.190;18.930;2023-11-21T14:25:50;97803.03;;;8.69;68.29
76216;BME280;65010;50.190;18.930;2023-11-21T14:28:58;97802.22;;;8.68;68.99
76216;BME280;65010;50.190;18.930;2023-11-21T14:32:07;97807.72;;;8.74;68.93
76216;BME280;65010;50.190;18.930;2023-11-21T14:35:16;97806.91;;;8.73;69.00
76216;BME280;65010;50.190;18.930;2023-11-21T14:38:23;97812.50;;;8.70;68.80
76216;BME280;65010;50.190;18.930;2023-11-21T14:41:30;97810.06;;;8.68;69.20
76216;BME280;65010;50.190;18.930;2023-11-21T14:44:41;97813.03;;;8.65;69.45
76216;BME280;65010;50.190;18.930;2023-11-21T14:47:47;97813.59;;;8.53;69.63
76216;BME280;65010;50.190;18.930;2023-11-21T14:50:57;97820.78;;;8.59;70.13
76216;BME280;65010;50.190;18.930;2023-11-21T14:54:21;97821.47;;;8.53;69.81
76216;BME280;65010;50.190;18.930;2023-11-21T14:57:43;97819.53;;;8.46;70.13
76216;BME280;65010;50.190;18.930;2023-11-21T15:00:58;97817.41;;;8.42;70.84
76216;BME280;65010;50.190;18.930;2023-11-21T15:04:05;97822.31;;;8.45;70.96
76216;BME280;65010;50.190;18.930;2023-11-21T15:07:17;97822.16;;;8.46;71.26
76216;BME280;65010;50.190;18.930;2023-11-21T15:10:21;97822.81;;;8.48;71.45
76216;BME280;65010;50.190;18.930;2023-11-21T15:13:40;97824.91;;;8.53;71.30
76216;BME280;65010;50.190;18.930;2023-11-21T15:16:50;97827.34;;;8.55;71.46
76216;BME280;65010;50.190;18.930;2023-11-21T15:20:03;97830.78;;;8.55;71.46
76216;BME280;65010;50.190;18.930;2023-11-21T15:23:12;97819.53;;;8.46;71.49
76216;BME280;65010;50.190;18.930;2023-11-21T15:26:20;97831.84;;;8.38;71.68
76216;BME280;65010;50.190;18.930;2023-11-21T15:29:30;97830.91;;;8.31;72.36
76216;BME280;65010;50.190;18.930;2023-11-21T15:32:39;97829.09;;;8.31;72.35
76216;BME280;65010;50.190;18.930;2023-11-21T15:35:46;97831.38;;;8.34;72.44
76216;BME280;65010;50.190;18.930;2023-11-21T15:38:52;97828.25;;;8.39;72.33
76216;BME280;65010;50.190;18.930;2023-11-21T15:41:59;97841.78;;;8.51;72.57
76216;BME280;65010;50.190;18.930;2023-11-21T15:45:07;97839.31;;;8.49;71.99
76216;BME280;65010;50.190;18.930;2023-11-21T15:48:19;97840.28;;;8.48;72.24
76216;BME280;65010;50.190;18.930;2023-11-21T15:51:25;97842.28;;;8.46;72.27
76216;BME280;65010;50.190;18.930;2023-11-21T15:54:33;97845.53;;;8.48;72.17
76216;BME280;65010;50.190;18.930;2023-11-21T15:57:40;97849.97;;;8.47;72.26
76216;BME280;65010;50.190;18.930;2023-11-21T16:00:47;97852.41;;;8.49;72.28
76216;BME280;65010;50.190;18.930;2023-11-21T16:03:58;97859.91;;;8.52;72.31
76216;BME280;65010;50.190;18.930;2023-11-21T16:07:06;97868.63;;;8.53;72.48
76216;BME280;65010;50.190;18.930;2023-11-21T16:10:17;97874.00;;;8.51;72.25
76216;BME280;65010;50.190;18.930;2023-11-21T16:13:23;97873.22;;;8.51;72.58
76216;BME280;65010;50.190;18.930;2023-11-21T16:16:30;97872.03;;;8.53;72.71
76216;BME280;65010;50.190;18.930;2023-11-21T16:19:40;97861.44;;;8.46;72.59
76216;BME280;65010;50.190;18.930;2023-11-21T16:22:47;97879.38;;;8.58;72.44
76216;BME280;65010;50.190;18.930;2023-11-21T16:25:55;97878.41;;;8.59;72.79
76216;BME280;65010;50.190;18.930;2023-11-21T16:29:01;97883.63;;;8.59;72.48
76216;BME280;65010;50.190;18.930;2023-11-21T16:32:10;97897.19;;;8.62;72.26
76216;BME280;65010;50.190;18.930;2023-11-21T16:35:19;97898.22;;;8.53;72.11
76216;BME280;65010;50.190;18.930;2023-11-21T16:38:26;97899.19;;;8.52;72.25